• Join FlightAware (Why Join?)
  • Login
  • US Flag 
10:37PM EDT


 

Airport Tracker/Info


-or-


 

Live Flight TrackerFlight Track Log ✈ CSN3257 ✈ 25-Feb-2014 ✈ ZGGG / CAN - ZSXZ / XUZ

Flight Track Log - Related Links

Times and Time Zones

All times are in EST time to prevent confusion due to time zone crossing. See the CSN3257 flight status page for this flight to view local times or setup timezone preferences in your user account.

Time Position Orientation Groundspeed Altitude Reporting Facility
EST Latitude Longitude Course Direction KTS MPH feet Rate Location/Type
04:36AM 23.4947 113.3316 16° North  Level Estimated
04:37AM 23.5970 113.3644 16° North  Level Estimated
04:38AM 23.6992 113.3973 16° North  Level Estimated
04:39AM 23.8015 113.4303 16° North  Level Estimated
04:40AM 23.9037 113.4633 16° North  Level Estimated
04:41AM 24.0060 113.4963 16° North  Level Estimated
04:42AM 24.1082 113.5294 16° North  Level Estimated
04:43AM 24.2104 113.5626 16° North  Level Estimated
04:44AM 24.3127 113.5958 16° North  Level Estimated
04:45AM 24.4149 113.6291 17° North  Level Estimated
04:46AM 24.5171 113.6624 17° North  Level Estimated
04:47AM 24.6193 113.6957 17° North  Level Estimated
04:48AM 24.7215 113.7292 17° North  Level Estimated
04:49AM 24.8276 113.7639 17° North  Level Estimated
04:50AM 24.9338 113.7988 17° North  Level Estimated
04:51AM 25.0399 113.8337 17° North  Level Estimated
04:52AM 25.1460 113.8687 17° North  Level Estimated
04:53AM 25.2521 113.9037 17° North  Level Estimated
04:54AM 25.3582 113.9388 17° North  Level Estimated
04:55AM 25.4643 113.9739 17° North  Level Estimated
04:56AM 25.5704 114.0091 17° North  Level Estimated
04:57AM 25.6765 114.0444 17° North  Level Estimated
04:58AM 25.7826 114.0797 17° North  Level Estimated
04:59AM 25.8887 114.1151 17° North  Level Estimated
05:00AM 25.9947 114.1506 17° North  Level Estimated
05:01AM 26.1008 114.1861 17° North  Level Estimated
05:02AM 26.2068 114.2217 17° North  Level Estimated
05:03AM 26.3128 114.2573 17° North  Level Estimated
05:04AM 26.4189 114.2931 17° North  Level Estimated
05:05AM 26.5249 114.3288 17° North  Level Estimated
05:06AM 26.6309 114.3647 17° North  Level Estimated
05:07AM 26.7369 114.4006 17° North  Level Estimated
05:08AM 26.8429 114.4366 17° North  Level Estimated
05:09AM 26.9489 114.4726 17° North  Level Estimated
05:10AM 27.0548 114.5088 17° North  Level Estimated
05:11AM 27.1608 114.5450 17° North  Level Estimated
05:12AM 27.2667 114.5812 17° North  Level Estimated
05:13AM 27.3727 114.6176 17° North  Level Estimated
05:14AM 27.4786 114.6540 17° North  Level Estimated
05:15AM 27.5845 114.6904 17° North  Level Estimated
05:16AM 27.6904 114.7270 17° North  Level Estimated
05:17AM 27.7963 114.7636 17° North  Level Estimated
05:18AM 27.9022 114.8002 17° North  Level Estimated
05:19AM 28.0081 114.8370 17° North  Level Estimated
05:20AM 28.1140 114.8738 17° North  Level Estimated
05:21AM 28.2198 114.9107 17° North  Level Estimated
05:22AM 28.3257 114.9477 17° North  Level Estimated
05:23AM 28.4315 114.9847 17° North  Level Estimated
05:24AM 28.5373 115.0219 17° North  Level Estimated
05:25AM 28.6432 115.0590 17° North  Level Estimated
05:26AM 28.7490 115.0963 17° North  Level Estimated
05:27AM 28.8548 115.1337 17° North  Level Estimated
05:28AM 28.9606 115.1711 17° North  Level Estimated
05:29AM 29.0664 115.2086 17° North  Level Estimated
05:30AM 29.1721 115.2461 17° North  Level Estimated
05:31AM 29.2779 115.2838 17° North  Level Estimated
05:32AM 29.3836 115.3215 17° North  Level Estimated
05:33AM 29.4894 115.3593 17° North  Level Estimated
05:34AM 29.5951 115.3972 17° North  Level Estimated
05:35AM 29.7008 115.4352 17° North  Level Estimated
05:36AM 29.8065 115.4732 17° North  Level Estimated
05:37AM 29.9122 115.5113 17° North  Level Estimated
05:38AM 30.0179 115.5495 17° North  Level Estimated
05:39AM 30.1236 115.5878 17° North  Level Estimated
05:40AM 30.2293 115.6262 17° North  Level Estimated
05:41AM 30.3349 115.6646 17° North  Level Estimated
05:42AM 30.4405 115.7032 17° North  Level Estimated
05:43AM 30.5462 115.7418 17° North  Level Estimated
05:44AM 30.6518 115.7805 17° North  Level Estimated
05:45AM 30.7574 115.8193 18° North  Level Estimated
05:46AM 30.8630 115.8581 18° North  Level Estimated
05:47AM 30.9686 115.8971 18° North  Level Estimated
05:48AM 31.0742 115.9361 18° North  Level Estimated
05:49AM 31.1797 115.9753 18° North  Level Estimated
05:50AM 31.2853 116.0145 18° North  Level Estimated
05:51AM 31.3908 116.0538 18° North  Level Estimated
05:52AM 31.4963 116.0932 18° North  Level Estimated
05:53AM 31.6019 116.1327 18° North  Level Estimated
05:54AM 31.7073 116.1722 18° North  Level Estimated
05:55AM 31.8128 116.2119 18° North  Level Estimated
05:56AM 31.9183 116.2517 18° North  Level Estimated
05:57AM 32.0238 116.2915 18° North  Level Estimated
05:58AM 32.1292 116.3315 18° North  Level Estimated
05:59AM 32.2347 116.3715 18° North  Level Estimated
06:00AM 32.3401 116.4116 18° North  Level Estimated
06:01AM 32.4455 116.4518 18° North  Level Estimated
06:02AM 32.5509 116.4921 18° North  Level Estimated
06:03AM 32.6563 116.5325 18° North  Level Estimated
06:04AM 32.7617 116.5730 18° North  Level Estimated
06:05AM 32.8670 116.6136 18° North  Level Estimated
06:06AM 32.9724 116.6543 18° North  Level Estimated
06:07AM 33.0777 116.6951 18° North  Level Estimated
06:08AM 33.1830 116.7360 18° North  Level Estimated
06:09AM 33.2884 116.7770 18° North  Level Estimated
06:10AM 33.3937 116.8181 18° North  Level Estimated
06:11AM 33.4989 116.8593 18° North  Level Estimated
06:12AM 33.6042 116.9006 18° North  Level Estimated
06:13AM 33.7095 116.9420 18° North  Level Estimated
06:14AM 33.8147 116.9835 18° North  Level Estimated
06:15AM 33.9199 117.0250 18° North  Level Estimated
06:16AM 34.0251 117.0667 18° North  Level Estimated
06:17AM 34.1303 117.1085 18° North  Level Estimated
06:18AM 34.2355 117.1504 18° North  Level Estimated
06:19AM 34.2881 117.1714 18° North  Level Estimated
06:20AM 34.2881 117.1714 192° South  Level Estimated
06:21AM 34.2881 117.1714 192° South  Level Estimated
06:22AM 34.2881 117.1714 192° South  Level Estimated
06:23AM 34.2881 117.1714 192° South  Level Estimated
06:24AM 34.2881 117.1714 192° South  Level Estimated
06:25AM 34.2881 117.1714 192° South  Level Estimated
06:26AM 34.2881 117.1714 192° South  Level Estimated
06:27AM 34.2881 117.1714 192° South  Level Estimated
06:28AM 34.2881 117.1714 192° South  Level Estimated
06:29AM 34.2881 117.1714 192° South  Level Estimated
06:30AM 34.2881 117.1714 192° South  Level Estimated
06:31AM 34.2881 117.1714 192° South  Level Estimated
06:32AM 34.2881 117.1714 192° South  Level Estimated
06:33AM 34.2881 117.1714 192° South  Level Estimated
06:34AM 34.2881 117.1714 192° South  Level Estimated